Time;durP1;ratioP1;P1;durP2;ratioP2;P2;SDS_P1;SDS_P2;PMS_P1;PMS_P2;Temp;Humidity;BMP_temperature;BMP_pressure;BME280_temperature;BME280_humidity;BME280_pressure;Samples;Min_cycle;Max_cycle;Signal;HPM_P1;HPM_P2
2021/08/19 00:00:26;;;;;;;8.15;5.38;;;;;;;15.74;88.09;101464.16;5004631;28;20125;-80
2021/08/19 00:02:51;;;;;;;8.70;5.00;;;;;;;15.77;87.83;101457.06;4999706;28;20427;-85
2021/08/19 00:05:17;;;;;;;9.50;5.45;;;;;;;15.81;87.44;101453.59;5015054;28;20037;-78
2021/08/19 00:07:42;;;;;;;8.27;5.30;;;;;;;15.87;87.54;101457.16;5025594;28;20041;-83
2021/08/19 00:10:28;;;;;;;7.95;5.22;;;;;;;15.90;87.89;101457.16;5007885;28;20026;-81
2021/08/19 00:12:53;;;;;;;10.82;5.30;;;;;;;15.92;87.79;101458.94;5007254;28;20026;-82
2021/08/19 00:15:18;;;;;;;11.23;5.82;;;;;;;15.95;87.15;101455.41;5010837;28;20752;-80
2021/08/19 00:17:44;;;;;;;12.60;5.47;;;;;;;15.96;87.58;101452.75;4997637;28;20036;-82
2021/08/19 00:20:12;;;;;;;9.02;5.45;;;;;;;15.99;87.67;101462.50;5011198;28;20127;-82
2021/08/19 00:22:38;;;;;;;12.93;5.38;;;;;;;16.02;87.27;101459.91;5029654;28;20021;-80
2021/08/19 00:25:24;;;;;;;11.10;6.15;;;;;;;16.06;86.88;101461.69;5013453;28;20026;-84
2021/08/19 00:27:50;;;;;;;11.27;4.57;;;;;;;16.09;87.36;101459.03;5011948;28;20048;-79
2021/08/19 00:30:16;;;;;;;10.68;5.78;;;;;;;16.12;86.72;101460.81;5012303;28;20037;-86
2021/08/19 00:32:41;;;;;;;8.02;4.88;;;;;;;16.14;86.74;101457.28;4995444;28;20034;-83
2021/08/19 00:35:27;;;;;;;7.85;5.53;;;;;;;16.16;86.52;101450.19;5009598;28;20412;-83
2021/08/19 00:38:12;;;;;;;8.48;4.78;;;;;;;16.22;86.48;101451.97;4995688;28;20034;-81
2021/08/19 00:40:37;;;;;;;13.63;5.18;;;;;;;16.23;86.30;101452.88;4996427;28;20030;-84
2021/08/19 00:43:27;;;;;;;10.68;5.05;;;;;;;16.25;86.27;101448.44;4996549;28;20526;-83
2021/08/19 00:45:52;;;;;;;9.10;5.30;;;;;;;16.26;86.75;101451.09;4997295;28;20022;-84
2021/08/19 00:48:18;;;;;;;9.77;5.18;;;;;;;16.25;86.93;101453.75;5012689;28;20026;-83
2021/08/19 00:50:44;;;;;;;8.55;4.90;;;;;;;16.24;87.03;101458.19;5013945;28;20097;-79
2021/08/19 00:53:09;;;;;;;10.80;5.38;;;;;;;16.24;86.99;101446.69;5014074;28;20026;-83
2021/08/19 00:55:35;;;;;;;9.30;5.63;;;;;;;16.24;87.31;101450.22;4996666;28;20022;-86
2021/08/19 00:58:00;;;;;;;10.23;5.70;;;;;;;16.24;87.58;101436.94;4995919;28;20034;-80
2021/08/19 01:00:26;;;;;;;12.02;5.90;;;;;;;16.24;87.78;101446.69;5008400;28;20029;-85
2021/08/19 01:02:54;;;;;;;12.63;6.50;;;;;;;16.22;88.22;101441.34;4995208;28;20125;-80
2021/08/19 01:05:23;;;;;;;10.55;5.93;;;;;;;16.22;88.41;101443.13;5012073;28;20082;-82
2021/08/19 01:07:48;;;;;;;15.07;6.18;;;;;;;16.21;89.09;101441.34;5000992;28;20044;-86
2021/08/19 01:10:34;;;;;;;11.48;6.32;;;;;;;16.19;88.51;101438.69;5008319;28;20030;-84
2021/08/19 01:12:59;;;;;;;11.52;6.57;;;;;;;16.15;88.46;101432.47;5010100;28;20058;-81
2021/08/19 01:15:25;;;;;;;8.00;6.30;;;;;;;16.09;88.43;101432.47;5011750;28;20057;-84
2021/08/19 01:18:09;;;;;;;14.05;6.10;;;;;;;15.99;88.41;101435.97;5003814;28;20034;-83
2021/08/19 01:20:35;;;;;;;;;;;;;;;15.87;88.88;101436.81;5010092;28;20021;-82
2021/08/19 01:23:02;;;;;;;16.48;7.13;;;;;;;15.73;89.31;101443.78;5013582;28;19953;-84
2021/08/19 01:25:47;;;;;;;11.40;6.43;;;;;;;15.59;90.21;101446.38;5006587;28;20030;-82
2021/08/19 01:28:13;;;;;;;13.43;6.40;;;;;;;15.45;90.90;101444.53;5007557;28;20045;-88
2021/08/19 01:30:38;;;;;;;13.27;7.00;;;;;;;15.37;91.33;101440.94;5012318;28;20030;-86
2021/08/19 01:33:04;;;;;;;21.50;8.18;;;;;;;15.28;91.65;101441.75;5008634;28;20045;-86
2021/08/19 01:35:29;;;;;;;11.63;7.00;;;;;;;15.22;92.19;101443.47;5013544;28;20109;-80
2021/08/19 01:37:58;;;;;;;16.15;7.63;;;;;;;15.14;92.07;101449.63;5012935;28;20030;-84
2021/08/19 01:40:24;;;;;;;13.55;6.88;;;;;;;15.07;92.59;101439.88;4995560;28;20079;-82
2021/08/19 01:42:49;;;;;;;11.10;7.25;;;;;;;14.98;92.79;101438.00;5008580;28;20092;-85
2021/08/19 01:45:16;;;;;;;13.98;7.38;;;;;;;14.92;92.99;101447.66;5000198;28;20402;-86
2021/08/19 01:48:01;;;;;;;13.90;7.18;;;;;;;14.84;93.58;101450.28;5014006;28;20034;-83
2021/08/19 01:50:26;;;;;;;12.13;8.00;;;;;;;14.80;93.87;101438.75;5013766;28;20038;-78
2021/08/19 01:52:52;;;;;;;14.77;7.68;;;;;;;14.78;94.37;101444.91;5011007;28;20037;-82
2021/08/19 01:55:18;;;;;;;16.38;7.95;;;;;;;14.78;94.73;101443.13;5010713;28;20567;-79
2021/08/19 01:57:46;;;;;;;18.88;9.52;;;;;;;14.88;95.36;101440.56;5012994;28;20095;-80
2021/08/19 02:00:11;;;;;;;14.70;8.35;;;;;;;14.97;95.60;101456.56;5003921;28;20025;-79
2021/08/19 02:02:37;;;;;;;15.75;8.52;;;;;;;15.07;95.53;101441.59;5011210;28;20028;-80
2021/08/19 02:05:03;;;;;;;11.98;7.97;;;;;;;15.15;95.41;101443.47;5012373;28;20026;-85
2021/08/19 02:07:28;;;;;;;15.32;7.32;;;;;;;15.25;95.35;101449.69;5012904;28;20041;-84
2021/08/19 02:09:54;;;;;;;15.80;8.45;;;;;;;15.34;94.43;101441.81;5011576;28;20388;-85
2021/08/19 02:12:22;;;;;;;8.57;6.60;;;;;;;15.41;94.29;101437.44;4997670;28;20504;-83
2021/08/19 02:14:48;;;;;;;9.18;6.55;;;;;;;15.48;93.55;101439.25;4995929;28;20054;-79
2021/08/19 02:17:13;;;;;;;10.13;6.57;;;;;;;15.57;93.11;101429.56;5007245;28;20119;-81
2021/08/19 02:19:39;;;;;;;10.80;6.25;;;;;;;15.64;92.85;101436.66;5011577;28;20059;-78
2021/08/19 02:22:04;;;;;;;7.75;5.18;;;;;;;15.69;92.12;101432.28;5008549;28;20030;-85
2021/08/19 02:24:30;;;;;;;10.35;5.53;;;;;;;15.72;91.71;101429.66;5011664;28;20056;-83
2021/08/19 02:26:55;;;;;;;9.85;6.30;;;;;;;15.77;91.50;101427.88;5011744;28;20066;-85
2021/08/19 02:29:21;;;;;;;9.80;5.50;;;;;;;15.79;90.78;101434.09;4995027;28;20037;-81
2021/08/19 02:31:46;;;;;;;6.68;5.00;;;;;;;15.82;91.11;101426.16;5003857;28;20484;-82
2021/08/19 02:34:12;;;;;;;8.63;5.55;;;;;;;15.84;90.89;101424.44;4996628;28;20065;-83
2021/08/19 02:36:37;;;;;;;13.52;6.25;;;;;;;15.87;90.75;101420.91;5003973;28;20021;-84
2021/08/19 02:39:05;;;;;;;7.20;6.00;;;;;;;15.90;90.41;101420.91;5023135;28;20037;-78
2021/08/19 02:41:33;;;;;;;9.02;5.03;;;;;;;15.94;89.84;101421.78;5000354;28;20065;-80
2021/08/19 02:44:18;;;;;;;9.80;5.38;;;;;;;15.96;90.42;101420.03;4982166;28;20057;-83
2021/08/19 02:46:43;;;;;;;8.55;4.60;;;;;;;15.97;90.32;101419.16;5008642;28;20065;-82
2021/08/19 02:49:09;;;;;;;11.55;4.97;;;;;;;16.00;89.92;101413.84;5012903;28;20042;-82
2021/08/19 02:51:34;;;;;;;10.98;5.15;;;;;;;16.00;89.91;101408.53;5009041;28;20113;-81
2021/08/19 02:54:00;;;;;;;6.78;4.93;;;;;;;16.01;90.12;101405.03;5028556;28;20037;-81
2021/08/19 02:56:27;;;;;;;12.25;5.50;;;;;;;16.01;90.05;101411.19;5012452;28;20026;-79
2021/08/19 02:58:52;;;;;;;10.35;5.38;;;;;;;16.04;89.65;101412.09;4995996;28;20404;-84
2021/08/19 03:01:18;;;;;;;12.60;5.43;;;;;;;16.05;89.94;101406.78;5008542;28;20034;-80
2021/08/19 03:03:43;;;;;;;7.35;5.38;;;;;;;16.06;89.87;101405.94;5012331;28;20029;-79
2021/08/19 03:06:09;;;;;;;12.77;5.63;;;;;;;16.09;89.39;101402.38;5010206;28;20026;-85
2021/08/19 03:08:34;;;;;;;13.52;5.68;;;;;;;16.09;89.69;101405.94;4999826;28;20026;-87
2021/08/19 03:11:00;;;;;;;15.10;5.97;;;;;;;16.08;89.82;101398.84;5006801;28;20038;-82
2021/08/19 03:13:45;;;;;;;7.22;4.90;;;;;;;16.10;89.92;101406.78;5020348;28;20046;-88
2021/08/19 03:16:11;;;;;;;11.35;5.80;;;;;;;16.07;89.91;101410.31;4994916;28;20033;-80
2021/08/19 03:18:36;;;;;;;13.50;6.53;;;;;;;16.06;90.15;101405.94;5007043;28;20029;-81
2021/08/19 03:21:03;;;;;;;9.65;6.20;;;;;;;16.09;90.11;101413.88;5012592;28;20464;-84
2021/08/19 03:23:29;;;;;;;12.20;6.00;;;;;;;16.10;90.16;101407.72;5016226;28;20116;-86
2021/08/19 03:25:54;;;;;;;8.10;5.95;;;;;;;16.13;89.85;101405.03;4984658;28;20494;-78
2021/08/19 03:28:22;;;;;;;8.45;5.93;;;;;;;16.14;89.63;101401.53;5010555;28;20037;-78
2021/08/19 03:30:48;;;;;;;9.95;6.47;;;;;;;16.15;89.84;101400.63;5012444;28;20134;-80
2021/08/19 03:33:16;;;;;;;11.90;6.25;;;;;;;16.16;89.65;101402.38;4999214;28;20457;-79
2021/08/19 03:35:42;;;;;;;8.90;6.32;;;;;;;16.18;89.82;101398.00;5010273;28;20022;-81
2021/08/19 03:38:08;;;;;;;10.13;5.53;;;;;;;16.22;89.24;101398.84;5012625;28;20028;-79
2021/08/19 03:40:33;;;;;;;10.32;5.53;;;;;;;16.26;89.02;101397.09;4997048;28;20513;-85
2021/08/19 03:43:20;;;;;;;12.00;6.05;;;;;;;16.24;88.74;101394.44;4996750;28;20090;-85
2021/08/19 03:45:47;;;;;;;7.50;5.43;;;;;;;16.26;88.96;101397.09;4997476;28;20022;-88
2021/08/19 03:48:13;;;;;;;9.15;4.85;;;;;;;16.27;89.06;101393.56;4991613;28;20495;-85
2021/08/19 03:50:39;;;;;;;9.63;5.88;;;;;;;16.28;89.10;101400.66;4995002;28;20053;-82
2021/08/19 03:53:05;;;;;;;13.35;5.75;;;;;;;16.27;88.78;101398.88;5008777;28;20566;-80
2021/08/19 03:55:30;;;;;;;11.60;5.57;;;;;;;16.31;88.46;101398.00;5010192;28;20529;-88
2021/08/19 03:57:56;;;;;;;11.60;6.03;;;;;;;16.34;88.23;101393.56;5027353;28;20052;-85
2021/08/19 04:00:22;;;;;;;11.88;6.28;;;;;;;16.35;88.37;101398.00;5007050;28;20048;-84
2021/08/19 04:02:47;;;;;;;11.55;6.13;;;;;;;16.34;88.17;101395.34;5009301;28;20040;-87
2021/08/19 04:05:13;;;;;;;8.38;5.60;;;;;;;16.37;87.89;101395.34;5009889;28;20034;-86
2021/08/19 04:07:38;;;;;;;8.25;5.57;;;;;;;16.41;87.41;101393.59;5009216;28;20041;-85
2021/08/19 04:10:24;;;;;;;10.32;6.20;;;;;;;16.42;87.96;101392.72;5005936;28;20033;-80
2021/08/19 04:12:49;;;;;;;9.77;5.30;;;;;;;16.42;87.30;101395.38;5010534;28;20034;-81
2021/08/19 04:15:15;;;;;;;9.98;6.13;;;;;;;16.42;87.65;101396.25;5009886;28;20052;-83
2021/08/19 04:17:40;;;;;;;8.45;5.90;;;;;;;16.45;86.98;101396.22;4998352;28;20045;-80
2021/08/19 04:20:26;;;;;;;5.85;4.97;;;;;;;16.49;87.11;101390.06;4979696;28;20030;-84
2021/08/19 04:23:11;;;;;;;9.10;4.95;;;;;;;16.53;86.86;101385.63;4998358;28;20480;-81
2021/08/19 04:25:37;;;;;;;10.50;5.63;;;;;;;16.51;87.29;101393.59;5004240;28;20026;-79
2021/08/19 04:28:05;;;;;;;7.70;5.13;;;;;;;16.51;86.70;101385.63;4975963;28;20034;-80
2021/08/19 04:30:31;;;;;;;7.25;4.90;;;;;;;16.51;87.14;101388.28;4986228;28;20080;-82
2021/08/19 04:32:56;;;;;;;7.85;4.80;;;;;;;16.51;87.21;101384.75;5010653;28;20042;-80
2021/08/19 04:35:43;;;;;;;7.10;4.93;;;;;;;16.52;86.77;101389.16;5010384;28;20426;-84
2021/08/19 04:38:29;;;;;;;9.40;4.65;;;;;;;16.56;86.73;101390.06;4999780;28;20121;-82
2021/08/19 04:40:55;;;;;;;7.55;5.10;;;;;;;16.59;86.02;101390.06;5018117;28;20025;-84
2021/08/19 04:43:40;;;;;;;5.70;4.50;;;;;;;16.58;86.52;101385.66;5015420;28;20037;-83
2021/08/19 04:46:28;;;;;;;5.55;4.45;;;;;;;16.57;86.76;101391.84;5006824;28;20054;-82
2021/08/19 04:48:53;;;;;;;7.18;4.43;;;;;;;16.56;87.06;101395.38;5007175;28;20037;-79
2021/08/19 04:51:19;;;;;;;8.10;4.35;;;;;;;16.56;86.53;101395.38;5010643;28;20034;-83
2021/08/19 04:53:44;;;;;;;9.13;5.00;;;;;;;16.55;86.86;101393.59;4997163;28;20037;-79
2021/08/19 04:56:10;;;;;;;6.57;4.40;;;;;;;16.52;87.19;101395.38;5006914;28;20541;-81
2021/08/19 04:58:37;;;;;;;7.53;4.40;;;;;;;16.53;87.09;101398.91;5007712;28;20038;-80
2021/08/19 05:01:02;;;;;;;5.90;4.70;;;;;;;16.54;86.75;101397.16;4986655;28;20040;-83
2021/08/19 05:03:28;;;;;;;5.93;4.43;;;;;;;16.54;86.89;101397.16;5004810;28;20034;-78
2021/08/19 05:05:56;;;;;;;5.43;3.95;;;;;;;16.55;87.05;101393.59;5009468;28;20476;-84
2021/08/19 05:08:22;;;;;;;5.85;4.80;;;;;;;16.54;87.44;101397.16;5012272;28;20079;-85
2021/08/19 05:11:07;;;;;;;8.43;4.57;;;;;;;16.56;87.09;101400.69;5011735;28;20174;-81
2021/08/19 05:13:33;;;;;;;6.18;4.60;;;;;;;16.57;87.04;101402.47;5011363;28;20086;-86
2021/08/19 05:15:58;;;;;;;9.23;4.75;;;;;;;16.58;87.10;101404.25;5011823;28;20029;-82
2021/08/19 05:18:44;;;;;;;6.10;4.30;;;;;;;16.59;87.30;101412.22;5001732;28;20121;-82
2021/08/19 05:21:29;;;;;;;5.30;4.20;;;;;;;16.62;86.98;101404.25;5013860;28;20026;-84
2021/08/19 05:23:55;;;;;;;6.80;4.60;;;;;;;16.64;86.76;101405.13;5009156;28;20034;-78
2021/08/19 05:26:23;;;;;;;9.15;4.65;;;;;;;16.67;86.95;101412.19;5012704;28;20043;-87
2021/08/19 05:28:50;;;;;;;10.20;5.07;;;;;;;16.70;86.64;101412.22;4998975;28;20034;-83
2021/08/19 05:31:15;;;;;;;5.40;4.28;;;;;;;16.73;86.84;101419.31;4998585;28;20500;-83
2021/08/19 05:33:41;;;;;;;8.25;5.85;;;;;;;16.72;87.24;101415.75;5004358;28;20046;-83
2021/08/19 05:36:09;;;;;;;10.88;6.18;;;;;;;16.74;87.07;101413.09;5008886;28;20176;-82
2021/08/19 05:38:55;;;;;;;13.15;6.22;;;;;;;16.73;87.58;101420.19;5010410;28;20064;-88
2021/08/19 05:41:20;;;;;;;9.15;6.85;;;;;;;16.76;87.04;101422.84;4998650;28;20048;-85
2021/08/19 05:43:45;;;;;;;11.93;7.80;;;;;;;16.77;87.03;101421.97;5011424;28;20157;-84
2021/08/19 05:46:11;;;;;;;10.55;7.38;;;;;;;16.78;86.99;101413.09;5010975;28;20340;-78
2021/08/19 05:48:36;;;;;;;12.75;6.50;;;;;;;16.81;86.92;101418.41;4994567;28;20033;-84
2021/08/19 05:51:03;;;;;;;13.30;6.53;;;;;;;16.81;86.85;101417.53;4999420;28;20034;-77
2021/08/19 05:53:28;;;;;;;11.55;7.38;;;;;;;16.81;86.77;101418.41;4981102;28;20027;-85
2021/08/19 05:55:53;;;;;;;12.63;7.30;;;;;;;16.81;87.11;101423.72;5010256;28;20122;-79
2021/08/19 05:58:19;;;;;;;12.30;6.97;;;;;;;16.81;86.84;101420.19;4998813;28;20121;-80
2021/08/19 06:01:04;;;;;;;16.77;7.80;;;;;;;16.85;86.62;101419.31;4995072;28;20109;-78
2021/08/19 06:03:30;;;;;;;11.48;8.02;;;;;;;16.82;86.56;101413.97;4997301;28;20045;-83
2021/08/19 06:05:56;;;;;;;11.75;7.93;;;;;;;16.84;86.19;101423.72;5009570;28;20030;-83
2021/08/19 06:08:21;;;;;;;10.95;7.25;;;;;;;16.80;86.97;101421.94;4987038;28;20022;-80
2021/08/19 06:11:06;;;;;;;12.93;8.13;;;;;;;16.85;86.05;101417.53;5002061;28;20082;-82
2021/08/19 06:13:32;;;;;;;13.07;8.30;;;;;;;16.83;86.75;101421.97;4994224;28;20038;-82
2021/08/19 06:15:57;;;;;;;11.73;7.57;;;;;;;16.85;86.48;101417.53;4996706;28;20037;-85
2021/08/19 06:18:23;;;;;;;11.55;8.35;;;;;;;16.85;87.46;101429.94;4984331;28;20026;-81
2021/08/19 06:20:49;;;;;;;16.52;8.57;;;;;;;16.83;87.36;101426.38;4993968;28;20026;-81
2021/08/19 06:23:15;;;;;;;13.40;8.35;;;;;;;16.85;87.69;101425.50;5000151;28;20050;-80
2021/08/19 06:25:42;;;;;;;17.60;9.10;;;;;;;16.85;87.27;101427.28;4998198;28;20026;-81
2021/08/19 06:28:08;;;;;;;11.50;8.00;;;;;;;16.90;86.53;101432.63;5001851;28;20026;-83
2021/08/19 06:30:54;;;;;;;12.88;8.35;;;;;;;16.93;87.20;101427.28;4998219;28;20447;-83
2021/08/19 06:33:20;;;;;;;12.13;7.43;;;;;;;16.97;86.62;101423.75;4998577;28;20047;-78
2021/08/19 06:35:45;;;;;;;15.40;8.00;;;;;;;16.97;87.17;101429.06;5013755;28;20044;-77
2021/08/19 06:38:11;;;;;;;16.27;7.65;;;;;;;17.00;86.72;101429.09;5003716;28;20109;-79
2021/08/19 06:40:36;;;;;;;13.93;8.10;;;;;;;17.00;86.97;101429.09;5001484;28;20023;-79
2021/08/19 06:43:02;;;;;;;14.48;8.25;;;;;;;17.02;87.39;101429.94;5009645;28;20044;-82
2021/08/19 06:45:27;;;;;;;11.80;8.50;;;;;;;17.02;87.27;101429.94;4997423;28;20018;-77
2021/08/19 06:47:53;;;;;;;15.05;8.10;;;;;;;17.04;87.19;101420.22;4994444;28;20041;-81
2021/08/19 06:50:18;;;;;;;15.57;8.75;;;;;;;17.05;87.20;101432.63;5000087;28;20053;-82
2021/08/19 06:52:44;;;;;;;20.02;8.68;;;;;;;17.04;87.64;101425.53;5009067;28;20026;-83
2021/08/19 06:55:10;;;;;;;12.23;7.85;;;;;;;17.04;87.26;101430.84;4998810;28;20037;-83
2021/08/19 06:57:36;;;;;;;14.38;7.82;;;;;;;17.06;87.60;101433.50;4997804;28;20041;-85
2021/08/19 07:00:22;;;;;;;17.33;8.85;;;;;;;17.05;87.10;101434.38;4998894;28;20022;-83
2021/08/19 07:02:49;;;;;;;14.02;7.57;;;;;;;17.07;87.10;101435.28;4996291;28;20030;-87
2021/08/19 07:05:15;;;;;;;16.15;9.13;;;;;;;17.09;86.92;101438.81;4998277;28;20034;-81
2021/08/19 07:08:00;;;;;;;11.57;7.97;;;;;;;17.12;86.85;101429.06;5002594;28;20388;-83
2021/08/19 07:10:26;;;;;;;11.13;8.20;;;;;;;17.13;86.89;101438.81;4987861;28;20030;-82
2021/08/19 07:12:54;;;;;;;15.60;8.23;;;;;;;17.16;86.55;101440.59;4999907;28;20048;-78
2021/08/19 07:15:19;;;;;;;13.73;8.20;;;;;;;17.16;86.76;101445.91;4997933;28;20026;-83
2021/08/19 07:17:45;;;;;;;15.45;8.50;;;;;;;17.14;86.83;101437.91;4997958;28;20031;-79
2021/08/19 07:20:30;;;;;;;13.75;8.43;;;;;;;17.18;87.01;101439.69;4995160;28;20292;-81
2021/08/19 07:22:58;;;;;;;10.25;7.53;;;;;;;17.21;86.90;101438.78;4995561;28;20022;-77
2021/08/19 07:25:24;;;;;;;18.15;8.52;;;;;;;17.24;86.62;101445.88;4996191;28;20480;-81
2021/08/19 07:27:50;;;;;;;14.55;8.15;;;;;;;17.26;86.60;101441.47;4995258;28;20034;-79
2021/08/19 07:30:17;;;;;;;17.60;8.38;;;;;;;17.26;86.05;101447.66;4995271;28;20034;-84
2021/08/19 07:32:43;;;;;;;13.38;8.25;;;;;;;17.30;86.08;101443.22;4994800;28;20034;-82
2021/08/19 07:35:10;;;;;;;11.85;7.97;;;;;;;17.32;85.70;101446.75;4996589;28;20050;-84
2021/08/19 07:38:17;;;;;;;13.82;8.52;;;;;;;17.34;85.27;101445.88;4997190;28;20026;-87
2021/08/19 07:41:21;;;;;;;14.27;7.90;;;;;;;17.34;85.85;101451.19;5001488;28;20038;-83
2021/08/19 07:43:46;;;;;;;13.65;7.75;;;;;;;17.29;85.76;101450.31;4995476;28;20030;-85
2021/08/19 07:46:12;;;;;;;14.15;8.00;;;;;;;17.30;86.03;101459.19;4992752;28;20023;-79
2021/08/19 07:48:40;;;;;;;12.65;7.90;;;;;;;17.25;85.80;101456.50;5005305;28;20121;-84
2021/08/19 07:51:05;;;;;;;11.52;7.82;;;;;;;17.24;86.00;101453.88;5002245;28;20138;-86
2021/08/19 07:53:31;;;;;;;14.68;7.70;;;;;;;17.26;86.35;101455.63;4998265;28;20034;-81
2021/08/19 07:55:56;;;;;;;14.07;7.85;;;;;;;17.24;86.12;101459.19;4983435;28;20397;-83
2021/08/19 07:58:22;;;;;;;13.77;8.57;;;;;;;17.24;86.40;101459.19;4997370;28;20076;-85
2021/08/19 08:00:47;;;;;;;12.43;8.50;;;;;;;17.22;86.62;101468.97;4996925;28;20026;-78
2021/08/19 08:03:13;;;;;;;13.43;8.90;;;;;;;17.20;86.83;101471.63;4993103;28;20121;-87
2021/08/19 08:05:38;;;;;;;12.23;7.88;;;;;;;17.18;86.83;101470.72;4975835;28;20022;-82
2021/08/19 08:08:06;;;;;;;14.98;8.15;;;;;;;17.22;86.83;101471.63;5004730;28;20086;-82
2021/08/19 08:10:37;;;;;;;18.42;8.07;;;;;;;17.23;86.63;101476.03;4997328;28;20026;-83
2021/08/19 08:13:05;;;;;;;15.95;8.13;;;;;;;17.31;87.00;101476.94;4985484;28;20042;-79
2021/08/19 08:15:30;;;;;;;10.65;7.45;;;;;;;17.40;86.54;101476.00;4998616;28;20318;-78
2021/08/19 08:17:56;;;;;;;16.45;8.70;;;;;;;17.46;86.08;101479.56;4978349;28;20039;-81
2021/08/19 08:20:42;;;;;;;12.02;7.43;;;;;;;17.57;86.17;101486.63;5001703;28;20109;-81
2021/08/19 08:23:10;;;;;;;14.55;8.35;;;;;;;17.56;85.45;101487.53;5002228;28;20442;-82
2021/08/19 08:25:36;;;;;;;12.18;7.78;;;;;;;17.52;85.14;101482.19;4995891;28;20374;-77
2021/08/19 08:28:26;;;;;;;13.60;7.75;;;;;;;17.53;85.79;101481.31;4997763;28;20048;-86
2021/08/19 08:30:52;;;;;;;14.85;7.50;;;;;;;17.53;86.08;101483.97;4994450;28;20049;-79
2021/08/19 08:33:18;;;;;;;11.95;8.00;;;;;;;17.56;86.17;101482.19;4999259;28;20038;-78
2021/08/19 08:35:44;;;;;;;15.80;8.30;;;;;;;17.59;85.68;101480.41;5005161;28;20022;-80
2021/08/19 08:38:16;;;;;;;15.73;8.63;;;;;;;17.61;84.88;101483.09;5004631;28;20206;-81
2021/08/19 08:40:48;;;;;;;12.57;7.13;;;;;;;17.63;85.14;101491.94;4996639;28;20030;-81
2021/08/19 08:43:16;;;;;;;16.23;8.88;;;;;;;17.63;84.74;101492.81;5005410;28;20050;-79
2021/08/19 08:45:43;;;;;;;15.18;8.35;;;;;;;17.62;84.89;101495.47;4997454;28;20026;-85
2021/08/19 08:48:15;;;;;;;17.98;7.57;;;;;;;17.62;85.26;101498.13;4995476;28;21365;-80
2021/08/19 08:50:43;;;;;;;16.05;8.50;;;;;;;17.59;84.96;101492.84;5002905;28;20033;-78
2021/08/19 08:53:10;;;;;;;14.40;8.30;;;;;;;17.52;85.36;101492.81;4994287;28;20094;-82
2021/08/19 08:55:37;;;;;;;13.60;8.85;;;;;;;17.52;85.35;101491.97;5001022;28;20053;-80
2021/08/19 08:58:02;;;;;;;11.65;7.50;;;;;;;17.56;84.92;101501.69;4996439;28;20036;-76
2021/08/19 09:00:28;;;;;;;10.90;8.05;;;;;;;17.55;84.84;101501.72;4997628;28;20129;-86
2021/08/19 09:03:15;;;;;;;12.98;8.25;;;;;;;17.64;85.16;101507.03;5000197;28;20415;-86
2021/08/19 09:05:43;;;;;;;18.55;8.30;;;;;;;17.70;84.69;101501.66;5005889;28;20109;-87
2021/08/19 09:08:20;;;;;;;12.00;8.27;;;;;;;17.77;84.94;101502.53;5007424;28;20038;-77
2021/08/19 09:11:06;;;;;;;15.93;7.65;;;;;;;17.90;85.20;101498.94;4997887;28;20041;-82
2021/08/19 09:13:31;;;;;;;10.35;7.53;;;;;;;17.89;84.24;101501.63;4997960;28;20083;-77
2021/08/19 09:16:14;;;;;;;15.13;8.48;;;;;;;17.93;84.38;101504.28;5001122;28;20022;-80
2021/08/19 09:19:09;;;;;;;15.38;7.30;;;;;;;17.92;83.62;101506.97;4997839;28;20099;-87
2021/08/19 09:21:45;;;;;;;16.35;8.23;;;;;;;17.82;84.27;101506.97;5002688;28;20506;-80
2021/08/19 09:24:28;;;;;;;12.02;7.30;;;;;;;17.78;84.14;101505.19;4993764;28;20752;-84
2021/08/19 09:26:55;;;;;;;13.65;8.70;;;;;;;17.83;84.51;101519.38;5000986;28;20044;-81
2021/08/19 09:29:40;;;;;;;14.35;7.78;;;;;;;18.00;83.97;101510.47;5001651;28;20054;-83
2021/08/19 09:32:16;;;;;;;11.60;7.40;;;;;;;18.13;83.37;101514.00;5002079;28;20042;-84
2021/08/19 09:34:44;;;;;;;10.52;7.57;;;;;;;18.18;83.10;101514.88;5003538;28;20042;-82
2021/08/19 09:37:31;;;;;;;15.00;8.00;;;;;;;18.29;82.46;101506.84;5014692;28;20038;-81
2021/08/19 09:40:00;;;;;;;13.18;7.55;;;;;;;18.37;82.19;101508.56;5001207;28;20114;-86
2021/08/19 09:42:55;;;;;;;12.05;7.68;;;;;;;18.47;81.56;101512.03;5003305;28;20055;-83
2021/08/19 09:45:23;;;;;;;17.38;8.48;;;;;;;18.56;82.65;101507.56;5015650;28;20399;-85
2021/08/19 09:47:52;;;;;;;15.77;7.00;;;;;;;18.76;81.98;101507.44;4995866;28;20026;-78
2021/08/19 09:50:37;;;;;;;12.13;7.22;;;;;;;18.95;79.57;101505.56;5014276;28;20029;-85
2021/08/19 09:53:26;;;;;;;11.13;7.03;;;;;;;19.17;80.10;101506.28;4998221;28;20144;-82
2021/08/19 09:56:12;;;;;;;12.27;7.47;;;;;;;19.34;79.01;101501.69;4993295;28;20058;-81
2021/08/19 09:58:39;;;;;;;11.43;6.43;;;;;;;19.38;77.94;101503.44;4995630;28;20403;-84
2021/08/19 10:01:05;;;;;;;11.15;7.35;;;;;;;19.27;76.63;101502.63;4993987;28;20053;-80
2021/08/19 10:03:30;;;;;;;10.55;7.50;;;;;;;19.29;77.79;101497.25;5005681;28;20476;-81
2021/08/19 10:05:56;;;;;;;11.82;7.03;;;;;;;19.41;78.27;101499.84;5004019;28;20026;-79
2021/08/19 10:08:23;;;;;;;14.88;6.65;;;;;;;19.64;77.76;101506.72;5007919;28;20499;-83
2021/08/19 10:10:55;;;;;;;16.63;6.10;;;;;;;19.81;76.60;101502.09;5003466;28;20397;-82
2021/08/19 10:13:21;;;;;;;10.00;5.50;;;;;;;20.03;75.39;101493.84;4994255;28;20022;-78
2021/08/19 10:15:49;;;;;;;7.30;4.95;;;;;;;20.05;75.04;101487.59;4994557;28;20022;-80
2021/08/19 10:18:22;;;;;;;9.20;5.10;;;;;;;19.90;73.61;101486.88;4995885;28;20070;-76
2021/08/19 10:20:56;;;;;;;9.10;5.50;;;;;;;19.64;74.01;101488.94;4995152;28;20030;-87
2021/08/19 10:23:25;;;;;;;9.45;5.57;;;;;;;19.58;73.93;101491.66;5010290;28;20091;-81
2021/08/19 10:26:23;;;;;;;8.13;4.65;;;;;;;19.45;75.33;101493.56;5018331;28;20030;-79
2021/08/19 10:29:12;;;;;;;9.13;5.03;;;;;;;19.47;74.67;101491.75;4998904;28;20058;-83
2021/08/19 10:31:41;;;;;;;8.15;4.78;;;;;;;19.64;75.27;101498.69;4995402;28;20034;-81
2021/08/19 10:34:07;;;;;;;13.43;5.22;;;;;;;19.69;75.74;101497.75;5008449;28;20098;-82
2021/08/19 10:36:38;;;;;;;6.25;5.13;;;;;;;19.67;73.90;101493.34;4999816;28;20495;-80
2021/08/19 10:39:19;;;;;;;6.60;4.18;;;;;;;19.58;73.82;101488.97;5009001;28;20080;-79
2021/08/19 10:41:50;;;;;;;11.07;4.40;;;;;;;19.54;74.95;101493.47;5001277;28;20038;-85
2021/08/19 10:44:15;;;;;;;7.35;4.55;;;;;;;19.38;75.33;101491.84;5004066;28;20483;-84
2021/08/19 10:46:49;;;;;;;9.15;4.65;;;;;;;19.29;75.26;101502.59;5005692;28;20495;-77
2021/08/19 10:49:30;;;;;;;;;;;;;;;19.24;76.06;101494.66;5008652;28;20034;-86
2021/08/19 10:52:07;;;;;;;6.15;4.53;;;;;;;19.08;76.04;101504.56;4999956;28;20359;-85
2021/08/19 10:55:28;;;;;;;6.63;4.45;;;;;;;19.03;77.85;101507.28;4995361;28;20087;-80
2021/08/19 10:57:56;;;;;;;7.93;4.18;;;;;;;19.05;76.11;101504.59;4969727;28;20052;-86
2021/08/19 11:00:42;;;;;;;6.20;3.85;;;;;;;19.18;76.21;101508.03;5002362;28;20121;-80
2021/08/19 11:03:07;;;;;;;6.28;4.00;;;;;;;19.19;75.91;101500.03;4998800;28;20042;-85
2021/08/19 11:05:36;;;;;;;5.20;4.05;;;;;;;19.23;76.90;101508.88;4998765;28;20056;-86
2021/08/19 11:08:04;;;;;;;7.00;3.88;;;;;;;19.26;77.05;101503.53;5008523;28;20034;-80
2021/08/19 11:10:38;;;;;;;6.47;3.67;;;;;;;19.33;76.46;101497.25;4994609;28;20045;-81
2021/08/19 11:13:09;;;;;;;4.40;3.63;;;;;;;19.31;77.35;101504.34;5005426;28;20492;-79
2021/08/19 11:16:01;;;;;;;4.93;4.05;;;;;;;19.10;75.93;101507.22;4995991;28;20033;-81
2021/08/19 11:18:48;;;;;;;7.97;3.50;;;;;;;18.82;75.93;101508.28;4999391;28;20046;-82
2021/08/19 11:21:14;;;;;;;4.32;3.60;;;;;;;18.66;76.84;101512.81;4995029;28;20044;-83
2021/08/19 11:23:43;;;;;;;5.15;3.33;;;;;;;18.61;77.51;101519.09;4998835;28;20034;-83
2021/08/19 11:26:21;;;;;;;9.75;4.30;;;;;;;18.44;78.99;101525.41;4990359;28;20092;-82
2021/08/19 11:28:49;;;;;;;5.35;4.57;;;;;;;18.32;80.46;101528.13;5005777;28;20037;-80
2021/08/19 11:31:21;;;;;;;6.65;4.97;;;;;;;18.27;81.49;101529.91;5003583;28;20029;-83
2021/08/19 11:33:48;;;;;;;6.10;5.50;;;;;;;18.10;83.68;101538.88;5001531;28;20056;-86